Time;durP1;ratioP1;P1;durP2;ratioP2;P2;SDS_P1;SDS_P2;PMS_P1;PMS_P2;Temp;Humidity;BMP_temperature;BMP_pressure;BME280_temperature;BME280_humidity;BME280_pressure;Samples;Min_cycle;Max_cycle;Signal;HPM_P1;HPM_P2
2021/10/25 00:00:56;;;;;;;5.37;2.77;;;4.50;99.90;;;;;;5034730;28;20190;-95
2021/10/25 00:03:21;;;;;;;8.33;3.40;;;4.40;99.90;;;;;;5034703;28;20233;-94
2021/10/25 00:05:47;;;;;;;3.63;2.50;;;4.40;99.90;;;;;;5034792;28;20191;-95
2021/10/25 00:08:13;;;;;;;6.07;2.93;;;4.40;99.90;;;;;;5034288;28;20178;-94
2021/10/25 00:10:40;;;;;;;7.83;3.10;;;4.40;99.90;;;;;;5034421;28;20186;-94
2021/10/25 00:13:06;;;;;;;6.50;3.00;;;4.40;99.90;;;;;;5034774;28;20170;-95
2021/10/25 00:15:32;;;;;;;9.17;3.33;;;4.40;99.90;;;;;;5034634;28;20523;-95
2021/10/25 00:17:58;;;;;;;6.97;3.10;;;4.30;99.90;;;;;;5033935;28;20224;-94
2021/10/25 00:20:23;;;;;;;5.97;3.13;;;4.30;99.90;;;;;;5034632;28;20189;-95
2021/10/25 00:22:49;;;;;;;4.57;2.70;;;4.30;99.90;;;;;;5034261;28;20273;-93
2021/10/25 00:25:15;;;;;;;6.47;2.97;;;4.40;99.90;;;;;;5034151;28;20237;-94
2021/10/25 00:27:41;;;;;;;5.23;3.00;;;4.40;99.90;;;;;;5034360;28;20182;-93
2021/10/25 00:30:08;;;;;;;4.13;2.67;;;4.40;99.90;;;;;;5034443;28;20648;-93
2021/10/25 00:32:34;;;;;;;6.60;2.83;;;4.40;99.90;;;;;;5034304;28;20210;-93
2021/10/25 00:35:00;;;;;;;7.10;3.23;;;4.30;99.90;;;;;;5034523;28;20177;-93
2021/10/25 00:37:25;;;;;;;6.43;2.90;;;4.30;99.90;;;;;;5034058;28;20515;-93
2021/10/25 00:39:51;;;;;;;6.70;2.97;;;4.30;99.90;;;;;;5034309;28;20217;-93
2021/10/25 00:42:17;;;;;;;6.47;2.47;;;4.20;99.90;;;;;;5034307;28;20256;-93
2021/10/25 00:44:43;;;;;;;6.83;2.80;;;4.10;99.90;;;;;;5033726;28;20271;-93
2021/10/25 00:47:09;;;;;;;6.07;3.00;;;4.20;99.90;;;;;;5034161;28;20321;-92
2021/10/25 00:49:35;;;;;;;6.30;2.80;;;4.20;99.90;;;;;;5034221;28;20265;-93
2021/10/25 00:52:02;;;;;;;6.33;2.97;;;4.20;99.90;;;;;;5034066;28;20190;-93
2021/10/25 00:54:31;;;;;;;9.17;3.00;;;4.20;99.90;;;;;;5017358;28;20515;-93
2021/10/25 00:56:57;;;;;;;4.70;2.60;;;4.20;99.90;;;;;;5036391;28;20243;-93
2021/10/25 00:59:23;;;;;;;5.87;2.80;;;4.20;99.90;;;;;;5037369;28;20217;-93
2021/10/25 01:01:49;;;;;;;6.73;2.73;;;4.20;99.90;;;;;;5037297;28;20605;-93
2021/10/25 01:04:14;;;;;;;6.43;3.30;;;4.20;99.90;;;;;;5037049;28;20213;-93
2021/10/25 01:06:41;;;;;;;6.80;2.67;;;4.10;99.90;;;;;;5037234;28;20178;-94
2021/10/25 01:09:07;;;;;;;4.07;2.33;;;4.10;99.90;;;;;;5036720;28;20192;-94
2021/10/25 01:11:34;;;;;;;4.23;2.47;;;4.10;99.90;;;;;;5037326;28;20520;-93
2021/10/25 01:14:02;;;;;;;4.37;2.20;;;4.10;99.90;;;;;;5036928;28;20178;-93
2021/10/25 01:16:28;;;;;;;4.17;2.50;;;4.10;99.90;;;;;;5036926;28;20240;-93
2021/10/25 01:18:55;;;;;;;7.57;3.10;;;4.00;99.90;;;;;;5036642;28;20212;-94
2021/10/25 01:21:21;;;;;;;5.63;2.53;;;4.00;99.90;;;;;;5037025;28;20228;-93
2021/10/25 01:23:47;;;;;;;5.57;2.93;;;4.00;99.90;;;;;;5393550;23;20329;-92
2021/10/25 01:26:14;;;;;;;5.53;3.07;;;4.10;99.90;;;;;;4984697;28;20259;-94
2021/10/25 01:28:41;;;;;;;3.70;2.80;;;4.10;99.90;;;;;;5009742;28;20270;-94
2021/10/25 01:31:06;;;;;;;4.93;2.90;;;4.10;99.90;;;;;;4999144;28;20207;-94
2021/10/25 01:33:34;;;;;;;4.93;2.53;;;4.10;99.90;;;;;;4986153;28;20230;-94
2021/10/25 01:36:00;;;;;;;4.10;3.00;;;4.10;99.90;;;;;;4994446;28;20517;-94
2021/10/25 01:38:25;;;;;;;4.30;2.73;;;4.10;99.90;;;;;;4977798;28;20172;-94
2021/10/25 01:40:51;;;;;;;4.33;2.70;;;4.10;99.90;;;;;;4994071;28;20182;-94
2021/10/25 01:43:17;;;;;;;4.27;2.93;;;4.10;99.90;;;;;;4977808;28;20259;-94
2021/10/25 01:45:47;;;;;;;4.20;2.60;;;4.10;99.90;;;;;;4994470;28;20261;-95
2021/10/25 01:48:14;;;;;;;5.20;2.80;;;4.00;99.90;;;;;;4977340;28;20183;-96
2021/10/25 01:50:40;;;;;;;5.37;2.43;;;4.00;99.90;;;;;;4977610;28;20184;-95
2021/10/25 01:53:08;;;;;;;5.47;2.47;;;4.00;99.90;;;;;;4977089;28;20183;-95
2021/10/25 01:55:34;;;;;;;5.57;2.43;;;4.00;99.90;;;;;;4984294;28;20180;-96
2021/10/25 01:58:00;;;;;;;5.40;2.70;;;4.00;99.90;;;;;;4993864;28;20176;-96
2021/10/25 02:00:26;;;;;;;4.60;2.67;;;3.90;99.90;;;;;;4980619;28;20180;-95
2021/10/25 02:02:52;;;;;;;4.63;2.63;;;3.90;99.90;;;;;;4977082;28;20191;-94
2021/10/25 02:05:18;;;;;;;4.23;2.40;;;3.90;99.90;;;;;;4975356;28;20207;-95
2021/10/25 02:07:44;;;;;;;4.00;2.57;;;3.90;99.90;;;;;;4977567;28;20191;-96
2021/10/25 02:10:11;;;;;;;3.90;2.33;;;3.90;99.90;;;;;;4974284;28;20302;-95
2021/10/25 02:12:37;;;;;;;4.83;2.57;;;3.80;99.90;;;;;;4977212;28;20188;-96
2021/10/25 02:15:03;;;;;;;5.47;2.73;;;3.80;99.90;;;;;;4980242;28;20186;-96
2021/10/25 02:17:29;;;;;;;3.80;2.33;;;3.80;99.90;;;;;;4976895;28;20180;-96
2021/10/25 02:19:55;;;;;;;5.90;2.57;;;3.80;99.90;;;;;;4973637;28;20184;-96
2021/10/25 02:22:23;;;;;;;4.10;2.63;;;3.70;99.90;;;;;;4978057;28;20191;-95
2021/10/25 02:24:49;;;;;;;4.17;2.47;;;3.70;99.90;;;;;;5002660;28;20285;-96
2021/10/25 02:27:14;;;;;;;6.20;2.80;;;3.70;99.90;;;;;;4992166;28;20183;-96
2021/10/25 02:29:40;;;;;;;4.50;2.53;;;3.70;99.90;;;;;;4995022;28;20187;-96
2021/10/25 02:32:09;;;;;;;7.67;2.63;;;3.60;99.90;;;;;;4997231;28;20266;-96
2021/10/25 02:34:37;;;;;;;6.47;3.10;;;3.60;99.90;;;;;;4996239;28;20521;-96
2021/10/25 02:37:04;;;;;;;6.17;3.07;;;3.50;99.90;;;;;;4994275;28;20195;-96
2021/10/25 02:39:30;;;;;;;3.40;2.57;;;3.60;99.90;;;;;;4997219;28;20510;-95
2021/10/25 02:41:57;;;;;;;3.93;2.50;;;3.60;99.90;;;;;;5000298;28;20270;-96
2021/10/25 02:44:24;;;;;;;6.00;2.57;;;3.60;99.90;;;;;;4996481;28;20297;-96
2021/10/25 02:46:54;;;;;;;6.13;3.17;;;3.50;99.90;;;;;;5000405;28;20171;-96
2021/10/25 02:49:20;;;;;;;3.27;2.47;;;3.50;99.90;;;;;;5000439;28;20202;-96
2021/10/25 02:51:46;;;;;;;6.40;3.23;;;3.50;99.90;;;;;;4999777;28;20266;-96
2021/10/25 02:54:12;;;;;;;4.80;2.90;;;3.50;99.90;;;;;;4999673;28;20275;-96
2021/10/25 02:56:38;;;;;;;5.27;3.10;;;3.60;99.90;;;;;;5006977;28;20183;-96
2021/10/25 02:59:08;;;;;;;5.20;2.97;;;3.60;99.90;;;;;;4999172;28;20676;-96
2021/10/25 03:01:35;;;;;;;4.43;2.63;;;3.60;99.90;;;;;;5000609;28;20181;-95
2021/10/25 03:04:01;;;;;;;5.90;3.00;;;3.60;99.90;;;;;;5000217;28;20206;-96
2021/10/25 03:06:27;;;;;;;5.13;2.60;;;3.60;99.90;;;;;;4999751;28;20272;-96
2021/10/25 03:08:53;;;;;;;4.83;2.73;;;3.60;99.90;;;;;;4998256;28;20262;-95
2021/10/25 03:11:18;;;;;;;8.57;2.97;;;3.60;99.90;;;;;;4997757;28;20199;-95
2021/10/25 03:13:44;;;;;;;4.77;2.87;;;3.70;99.90;;;;;;5000366;28;20598;-96
2021/10/25 03:16:11;;;;;;;6.40;2.73;;;3.70;99.90;;;;;;5000085;28;20631;-96
2021/10/25 03:18:37;;;;;;;4.70;3.00;;;3.70;99.90;;;;;;4999261;28;20182;-94
2021/10/25 03:21:03;;;;;;;6.03;2.73;;;3.70;99.90;;;;;;4999540;28;20184;-96
2021/10/25 03:23:30;;;;;;;5.87;2.63;;;3.80;99.90;;;;;;4996558;28;20214;-96
2021/10/25 03:25:56;;;;;;;8.83;2.60;;;3.80;99.90;;;;;;4999535;28;20227;-96
2021/10/25 03:28:22;;;;;;;5.70;2.60;;;3.80;99.90;;;;;;4999292;28;20182;-96
2021/10/25 03:30:48;;;;;;;6.33;2.80;;;3.80;99.90;;;;;;4999299;28;20187;-96
2021/10/25 03:33:14;;;;;;;7.20;2.67;;;3.80;99.90;;;;;;4998474;28;20206;-96
2021/10/25 03:35:40;;;;;;;7.17;2.90;;;3.80;99.90;;;;;;5006253;28;20233;-96
2021/10/25 03:38:09;;;;;;;4.00;2.37;;;3.90;99.90;;;;;;4999435;28;20556;-96
2021/10/25 03:40:36;;;;;;;3.93;2.43;;;3.80;99.90;;;;;;4998950;28;20192;-96
2021/10/25 03:43:02;;;;;;;5.77;2.60;;;3.80;99.90;;;;;;4999259;28;20179;-96
2021/10/25 03:50:42;;;;;;;4.07;2.20;;;3.50;99.90;;;;;;4976192;28;20629;-96
2021/10/25 03:53:23;;;;;;;6.67;2.40;;;3.30;99.90;;;;;;4998146;28;20804;-95
2021/10/25 04:28:38;;;;;;;6.47;2.73;;;3.80;99.90;;;;;;5016082;28;20198;-96
2021/10/25 04:31:04;;;;;;;4.13;2.47;;;3.80;99.90;;;;;;5014865;28;20326;-96
2021/10/25 04:33:30;;;;;;;5.43;2.50;;;3.90;99.90;;;;;;5000902;28;20269;-96
2021/10/25 04:35:56;;;;;;;6.80;2.80;;;3.90;99.90;;;;;;4998489;28;20190;-96
2021/10/25 04:38:21;;;;;;;5.63;2.63;;;3.90;99.90;;;;;;4998419;28;20183;-96
2021/10/25 04:40:47;;;;;;;7.07;2.60;;;3.90;99.90;;;;;;4995346;28;20784;-96
2021/10/25 04:43:15;;;;;;;4.90;2.67;;;3.90;99.90;;;;;;5015367;28;20614;-94
2021/10/25 04:45:42;;;;;;;4.67;2.30;;;4.00;99.90;;;;;;4997987;28;20187;-95
2021/10/25 04:48:10;;;;;;;4.40;2.60;;;3.90;99.90;;;;;;4998106;28;20669;-94
2021/10/25 04:50:36;;;;;;;4.20;2.63;;;3.90;99.90;;;;;;4996149;28;20218;-95
2021/10/25 04:53:03;;;;;;;7.57;3.10;;;3.90;99.90;;;;;;5004665;28;20565;-94
2021/10/25 04:55:29;;;;;;;5.53;2.57;;;3.90;99.90;;;;;;5013963;28;20183;-96
2021/10/25 04:57:55;;;;;;;3.70;2.63;;;3.90;99.90;;;;;;4993849;28;20215;-96
2021/10/25 05:00:20;;;;;;;4.93;3.10;;;4.00;99.90;;;;;;4997402;28;20191;-95
2021/10/25 05:02:46;;;;;;;5.50;2.50;;;4.00;99.90;;;;;;4997676;28;20246;-96
2021/10/25 05:05:12;;;;;;;5.07;2.50;;;4.00;99.90;;;;;;4997093;28;20301;-94
2021/10/25 05:07:38;;;;;;;6.73;2.50;;;4.00;99.90;;;;;;4997997;28;20193;-94
2021/10/25 05:10:04;;;;;;;5.13;2.57;;;4.00;99.90;;;;;;5013728;28;20179;-96
2021/10/25 05:12:31;;;;;;;5.87;2.37;;;4.00;99.90;;;;;;4998204;28;20179;-96
2021/10/25 05:14:57;;;;;;;4.70;2.70;;;4.00;99.90;;;;;;4996767;28;20519;-96
2021/10/25 05:17:24;;;;;;;5.87;2.73;;;4.00;99.90;;;;;;4995536;28;20184;-95
2021/10/25 05:19:51;;;;;;;9.27;3.33;;;4.00;99.90;;;;;;4996703;28;20183;-96
2021/10/25 05:22:18;;;;;;;5.33;3.17;;;4.00;99.90;;;;;;4998843;28;20182;-96
2021/10/25 05:24:45;;;;;;;6.50;3.10;;;4.00;99.90;;;;;;4993145;28;20243;-95
2021/10/25 05:27:15;;;;;;;4.97;3.10;;;4.00;99.90;;;;;;4987640;28;20239;-96
2021/10/25 05:29:41;;;;;;;4.77;2.80;;;4.00;99.90;;;;;;5012831;28;20186;-96
2021/10/25 05:32:07;;;;;;;5.83;3.00;;;4.00;99.90;;;;;;4995392;28;20262;-94
2021/10/25 05:34:33;;;;;;;6.77;2.90;;;4.00;99.90;;;;;;4996870;28;20270;-94
2021/10/25 05:37:01;;;;;;;5.07;2.90;;;4.00;99.90;;;;;;5003166;28;20298;-95
2021/10/25 05:39:27;;;;;;;6.20;3.30;;;4.00;99.90;;;;;;4998436;28;20198;-96
2021/10/25 05:41:53;;;;;;;6.37;2.83;;;4.00;99.90;;;;;;4997951;28;20179;-96
2021/10/25 05:44:20;;;;;;;6.43;2.90;;;3.90;99.90;;;;;;4997625;28;20288;-94
2021/10/25 05:46:46;;;;;;;8.00;3.10;;;3.90;99.90;;;;;;4997423;28;20206;-95
2021/10/25 05:49:12;;;;;;;5.33;3.20;;;3.90;99.90;;;;;;4996051;28;20218;-96
2021/10/25 05:51:38;;;;;;;6.60;2.97;;;3.90;99.90;;;;;;5000137;28;20187;-95
2021/10/25 05:54:05;;;;;;;6.50;3.50;;;3.90;99.90;;;;;;4996404;28;20187;-96
2021/10/25 05:56:31;;;;;;;6.03;3.27;;;3.80;99.90;;;;;;4995021;28;20183;-96
2021/10/25 05:58:57;;;;;;;10.07;3.07;;;3.80;99.90;;;;;;4996799;28;20206;-93
2021/10/25 06:04:21;;;;;;;8.00;3.07;;;3.70;99.90;;;;;;4976621;28;20226;-96
2021/10/25 06:06:46;;;;;;;3.87;2.60;;;3.70;99.90;;;;;;4996708;28;20176;-96
2021/10/25 06:09:12;;;;;;;3.80;2.87;;;3.60;99.90;;;;;;4996803;28;20270;-96
2021/10/25 06:11:38;;;;;;;8.33;3.20;;;3.50;99.90;;;;;;4998154;28;20179;-96
2021/10/25 06:14:06;;;;;;;6.60;2.83;;;3.50;99.90;;;;;;4998527;28;20248;-95
2021/10/25 06:16:40;;;;;;;3.37;2.80;;;3.50;99.90;;;;;;5001489;28;20179;-96
2021/10/25 06:19:07;;;;;;;5.13;2.90;;;3.50;99.90;;;;;;5000183;28;20270;-96
2021/10/25 06:21:34;;;;;;;4.30;3.00;;;3.50;99.90;;;;;;5000035;28;20503;-96
2021/10/25 06:24:00;;;;;;;5.87;3.30;;;3.50;99.90;;;;;;5016248;28;20241;-96
2021/10/25 06:26:27;;;;;;;6.20;2.97;;;3.60;99.90;;;;;;4999649;28;20179;-96
2021/10/25 06:28:54;;;;;;;5.60;3.20;;;3.50;99.90;;;;;;5016239;28;20190;-94
2021/10/25 06:31:20;;;;;;;6.07;3.20;;;3.50;99.90;;;;;;5000035;28;20229;-95
2021/10/25 06:33:47;;;;;;;6.97;3.00;;;3.60;99.90;;;;;;5000193;28;20179;-96
2021/10/25 06:36:13;;;;;;;6.23;3.53;;;3.60;99.90;;;;;;4999845;28;20176;-96
2021/10/25 06:38:51;;;;;;;6.70;3.37;;;3.60;99.90;;;;;;4999926;28;20186;-95
2021/10/25 06:41:19;;;;;;;5.13;3.27;;;3.70;99.90;;;;;;5017088;28;20175;-96
2021/10/25 06:43:45;;;;;;;5.63;3.33;;;3.70;99.90;;;;;;5017048;28;20210;-95
2021/10/25 06:46:11;;;;;;;6.10;3.60;;;3.80;99.90;;;;;;5000617;28;20171;-96
2021/10/25 06:48:38;;;;;;;5.93;3.33;;;3.80;99.90;;;;;;4999982;28;20183;-96
2021/10/25 06:51:04;;;;;;;7.70;3.43;;;3.90;99.90;;;;;;5017052;28;20182;-96
2021/10/25 06:53:29;;;;;;;6.40;3.50;;;4.00;99.90;;;;;;4999964;28;20191;-95
2021/10/25 06:55:55;;;;;;;6.77;4.03;;;4.10;99.90;;;;;;5000079;28;20239;-96
2021/10/25 06:58:22;;;;;;;6.80;4.03;;;4.10;99.90;;;;;;5000302;28;20270;-96
2021/10/25 07:00:48;;;;;;;9.17;3.93;;;4.20;99.90;;;;;;5000410;28;20179;-96
2021/10/25 07:03:15;;;;;;;9.30;3.87;;;4.30;99.90;;;;;;5000404;28;20266;-96
2021/10/25 07:05:41;;;;;;;9.50;3.73;;;4.40;99.90;;;;;;5000474;28;20724;-96
2021/10/25 07:08:07;;;;;;;7.30;4.17;;;4.40;99.90;;;;;;5000162;28;20205;-96
2021/10/25 07:10:35;;;;;;;8.17;4.10;;;4.50;99.90;;;;;;5000559;28;20186;-96
2021/10/25 07:13:01;;;;;;;7.03;3.97;;;4.60;99.90;;;;;;5000444;28;20182;-96
2021/10/25 07:15:30;;;;;;;7.93;4.03;;;4.70;99.90;;;;;;5000290;28;20179;-96
2021/10/25 07:18:18;;;;;;;5.80;4.17;;;4.80;99.90;;;;;;5000614;28;20175;-96
2021/10/25 07:20:57;;;;;;;5.43;4.20;;;4.90;99.90;;;;;;5000612;28;20176;-96
2021/10/25 08:11:59;;;;;;;8.50;4.83;;;6.30;99.90;;;;;;4996983;28;20210;-96
2021/10/25 08:14:32;;;;;;;8.10;4.70;;;6.30;99.90;;;;;;4995877;28;20172;-96
2021/10/25 08:16:58;;;;;;;11.27;5.00;;;6.40;99.90;;;;;;4995338;28;20243;-96
2021/10/25 08:19:25;;;;;;;13.00;4.93;;;6.40;99.90;;;;;;4995740;28;20583;-96
2021/10/25 08:22:03;;;;;;;10.57;5.27;;;6.50;99.90;;;;;;4998595;28;20191;-96
2021/10/25 08:24:41;;;;;;;7.97;5.00;;;6.60;99.90;;;;;;4998340;28;20243;-96
2021/10/25 08:27:08;;;;;;;9.17;5.60;;;6.70;99.90;;;;;;4998187;28;20270;-96
2021/10/25 08:29:35;;;;;;;11.10;5.63;;;6.80;99.90;;;;;;4998572;28;20537;-96
2021/10/25 08:40:00;;;;;;;8.83;5.47;;;7.10;99.90;;;;;;5016156;28;20175;-96
2021/10/25 08:42:28;;;;;;;10.53;5.57;;;7.20;99.90;;;;;;4999360;28;20164;-96
2021/10/25 08:44:58;;;;;;;8.93;5.50;;;7.20;99.90;;;;;;4999132;28;20532;-96
2021/10/25 08:47:29;;;;;;;11.40;5.57;;;7.30;99.90;;;;;;4998617;28;20171;-96
2021/10/25 08:49:56;;;;;;;10.43;5.67;;;7.30;99.90;;;;;;4999427;28;20179;-96
2021/10/25 08:52:24;;;;;;;10.37;5.93;;;7.40;99.90;;;;;;4999165;28;20254;-96
2021/10/25 08:54:51;;;;;;;12.30;5.97;;;7.40;99.90;;;;;;5000954;28;20274;-96
2021/10/25 08:57:19;;;;;;;8.50;5.53;;;7.50;99.90;;;;;;5000565;28;20186;-96
2021/10/25 09:00:01;;;;;;;9.07;5.90;;;7.60;99.90;;;;;;5000791;28;20188;-96
2021/10/25 09:02:30;;;;;;;10.50;4.90;;;7.70;99.90;;;;;;5002764;28;20280;-96
2021/10/25 09:05:04;;;;;;;10.00;5.70;;;7.70;99.90;;;;;;5020546;28;20645;-96
2021/10/25 09:07:33;;;;;;;9.43;6.00;;;7.80;99.90;;;;;;5017260;28;20552;-95
2021/10/25 09:10:04;;;;;;;11.97;6.57;;;7.80;99.90;;;;;;4999077;28;20695;-96
2021/10/25 09:12:34;;;;;;;12.07;5.97;;;8.00;99.90;;;;;;5000314;28;20167;-96
2021/10/25 09:15:01;;;;;;;11.07;6.00;;;8.00;99.90;;;;;;4999196;28;20302;-96
2021/10/25 09:17:27;;;;;;;9.97;5.90;;;8.10;99.90;;;;;;5015537;28;20606;-96
2021/10/25 09:20:03;;;;;;;8.27;5.97;;;8.20;99.90;;;;;;5015265;28;20269;-96
2021/10/25 09:22:29;;;;;;;11.13;5.83;;;8.40;99.90;;;;;;4999021;28;20519;-96
2021/10/25 09:24:58;;;;;;;12.77;6.70;;;8.40;99.90;;;;;;5014343;28;20235;-95
2021/10/25 09:27:33;;;;;;;9.00;6.20;;;8.60;99.90;;;;;;4998980;28;20175;-96
2021/10/25 09:30:15;;;;;;;9.07;6.47;;;8.60;99.90;;;;;;5013820;28;20179;-96
2021/10/25 09:32:44;;;;;;;14.97;6.63;;;8.70;99.90;;;;;;4998107;28;20258;-95
2021/10/25 09:35:46;;;;;;;10.60;5.23;;;8.90;99.90;;;;;;4998312;28;20629;-96
2021/10/25 09:38:21;;;;;;;11.57;6.10;;;9.00;99.90;;;;;;5012241;28;20281;-96
2021/10/25 09:45:05;;;;;;;12.10;6.10;;;9.20;99.90;;;;;;5015324;28;20176;-95
2021/10/25 09:49:11;;;;;;;6.50;4.23;;;9.40;99.90;;;;;;5017419;28;20167;-96
2021/10/25 09:51:38;;;;;;;8.27;4.40;;;9.50;99.90;;;;;;5001632;28;20183;-96
2021/10/25 09:54:05;;;;;;;8.67;3.90;;;9.60;99.90;;;;;;5001710;28;20631;-96
2021/10/25 09:56:34;;;;;;;7.00;4.13;;;9.60;99.90;;;;;;5001961;28;20186;-95
2021/10/25 09:59:17;;;;;;;8.17;4.10;;;9.60;99.90;;;;;;5001375;28;20693;-95
2021/10/25 10:01:44;;;;;;;8.37;4.47;;;9.70;99.90;;;;;;5001831;28;20176;-96
2021/10/25 10:04:10;;;;;;;11.30;4.20;;;9.80;99.90;;;;;;5001451;28;20213;-96
2021/10/25 10:06:39;;;;;;;9.47;4.10;;;9.90;99.90;;;;;;5002642;28;20179;-96
2021/10/25 10:09:07;;;;;;;9.80;4.30;;;10.00;99.90;;;;;;5001413;28;20265;-96
2021/10/25 10:11:34;;;;;;;8.80;4.20;;;10.00;99.90;;;;;;5001498;28;20226;-96
2021/10/25 10:14:01;;;;;;;9.63;3.43;;;10.10;99.90;;;;;;5003880;28;20187;-96
2021/10/25 10:16:28;;;;;;;6.93;3.33;;;10.10;99.90;;;;;;5001904;28;20176;-96
2021/10/25 10:19:03;;;;;;;5.77;3.77;;;10.20;99.90;;;;;;5001925;28;20190;-96
2021/10/25 10:21:29;;;;;;;7.70;3.43;;;10.30;99.90;;;;;;5018852;28;20179;-96
2021/10/25 10:24:09;;;;;;;7.37;3.53;;;10.30;99.90;;;;;;5001838;28;20265;-96
2021/10/25 10:26:37;;;;;;;5.63;3.70;;;10.40;99.90;;;;;;5018067;28;20194;-96
2021/10/25 10:29:17;;;;;;;4.77;3.37;;;10.50;99.90;;;;;;5017637;28;20187;-96
2021/10/25 10:31:43;;;;;;;5.43;3.10;;;10.50;99.90;;;;;;5017333;28;20230;-96
2021/10/25 10:34:14;;;;;;;5.83;3.50;;;10.50;99.90;;;;;;5005351;28;20183;-96
2021/10/25 10:37:01;;;;;;;8.13;3.47;;;10.50;99.90;;;;;;5028719;28;20210;-96
2021/10/25 10:39:29;;;;;;;7.65;3.45;;;10.50;99.90;;;;;;5009779;28;20559;-96
2021/10/25 10:41:58;;;;;;;6.97;3.45;;;10.60;99.90;;;;;;5017999;28;20186;-96
2021/10/25 10:44:28;;;;;;;6.38;3.28;;;10.80;99.90;;;;;;5017946;28;20246;-96
2021/10/25 10:47:01;;;;;;;6.13;3.20;;;10.80;99.90;;;;;;5003735;28;20209;-95
2021/10/25 10:49:44;;;;;;;6.35;3.03;;;10.90;99.90;;;;;;5004592;28;20175;-96
2021/10/25 10:55:03;;;;;;;5.82;2.90;;;11.10;99.90;;;;;;5021550;28;20279;-96
2021/10/25 11:00:46;;;;;;;6.55;2.72;;;11.10;99.90;;;;;;5018732;28;20171;-95
2021/10/25 11:03:24;;;;;;;6.25;2.80;;;11.10;99.90;;;;;;5002776;28;20186;-96
2021/10/25 11:06:02;;;;;;;6.72;3.10;;;11.30;99.90;;;;;;5019877;28;20214;-96
2021/10/25 11:08:36;;;;;;;6.60;3.00;;;11.40;99.90;;;;;;5002382;28;20219;-96
2021/10/25 11:11:29;;;;;;;7.18;2.80;;;11.50;99.90;;;;;;5002817;28;20187;-96
2021/10/25 11:14:04;;;;;;;7.93;2.95;;;11.60;99.90;;;;;;4999878;28;20247;-96
2021/10/25 11:17:06;;;;;;;6.90;3.00;;;11.70;99.90;;;;;;4985109;28;20182;-96
2021/10/25 11:19:21;;;;;;;5.15;2.67;;;11.80;99.90;;;;;;5002204;28;20188;-96
2021/10/25 11:21:53;;;;;;;4.95;3.00;;;11.80;99.90;;;;;;4984972;28;20188;-94
2021/10/25 11:24:20;;;;;;;7.10;2.65;;;11.80;99.90;;;;;;4984702;28;20231;-96
2021/10/25 11:26:57;;;;;;;6.50;2.83;;;11.70;99.90;;;;;;4982272;28;20179;-95
2021/10/25 11:29:33;;;;;;;5.47;2.67;;;11.70;99.90;;;;;;5000050;28;20207;-93
2021/10/25 11:32:06;;;;;;;6.75;2.63;;;11.80;99.90;;;;;;4980773;28;20179;-93
2021/10/25 11:34:41;;;;;;;7.40;2.72;;;11.90;99.90;;;;;;4972451;28;20238;-94
2021/10/25 11:37:16;;;;;;;5.00;3.08;;;11.80;99.90;;;;;;4994500;28;20218;-94
2021/10/25 11:39:57;;;;;;;5.30;2.60;;;11.90;99.90;;;;;;4979546;28;20627;-94
2021/10/25 11:42:30;;;;;;;5.28;2.67;;;12.00;99.90;;;;;;4994910;28;20191;-95
2021/10/25 11:45:08;;;;;;;3.65;2.47;;;12.10;99.90;;;;;;4995978;28;20271;-92
2021/10/25 11:47:44;;;;;;;10.32;2.70;;;12.20;99.90;;;;;;4996224;28;20172;-93
2021/10/25 11:50:14;;;;;;;5.10;2.13;;;12.30;99.90;;;;;;4996851;28;20259;-94
2021/10/25 11:52:48;;;;;;;6.32;2.42;;;12.40;99.90;;;;;;4980466;28;20168;-92
2021/10/25 11:55:20;;;;;;;8.20;2.80;;;12.40;99.90;;;;;;4996208;28;20179;-93
2021/10/25 11:57:48;;;;;;;6.18;2.88;;;12.40;99.90;;;;;;4979703;28;20191;-92
2021/10/25 12:00:19;;;;;;;4.57;2.20;;;12.50;99.90;;;;;;4979679;28;20195;-93
2021/10/25 12:02:45;;;;;;;5.18;2.30;;;12.60;99.90;;;;;;4980292;28;20172;-93
2021/10/25 12:05:17;;;;;;;5.72;2.13;;;12.70;99.90;;;;;;4996801;28;20212;-94
2021/10/25 12:07:51;;;;;;;5.43;2.00;;;12.80;99.90;;;;;;4978690;28;20309;-93
2021/10/25 12:10:19;;;;;;;3.20;1.92;;;13.00;99.90;;;;;;4983359;28;20180;-93
2021/10/25 12:12:45;;;;;;;6.10;2.50;;;13.10;99.90;;;;;;4975709;28;20177;-93
2021/10/25 12:15:16;;;;;;;5.40;2.40;;;13.20;99.90;;;;;;4975937;28;20180;-93
2021/10/25 12:17:42;;;;;;;6.97;2.78;;;13.30;99.90;;;;;;4979194;28;20187;-94
2021/10/25 12:20:11;;;;;;;4.57;2.20;;;13.40;99.90;;;;;;4996019;28;20172;-94
2021/10/25 12:22:41;;;;;;;5.57;2.70;;;13.30;99.90;;;;;;4995472;28;20180;-93
2021/10/25 12:25:07;;;;;;;5.15;2.13;;;13.40;99.90;;;;;;5001096;28;20242;-94
2021/10/25 12:27:41;;;;;;;5.75;2.33;;;13.40;99.90;;;;;;4979266;28;20647;-95
2021/10/25 12:30:16;;;;;;;6.22;2.60;;;13.50;99.90;;;;;;4979195;28;20267;-94
2021/10/25 12:32:59;;;;;;;5.63;2.47;;;13.70;99.90;;;;;;4979864;28;20238;-93
2021/10/25 12:35:46;;;;;;;3.97;2.42;;;13.80;99.90;;;;;;4979283;28;20626;-95
2021/10/25 12:38:18;;;;;;;4.85;2.45;;;13.80;99.90;;;;;;4979131;28;20172;-94
2021/10/25 12:41:01;;;;;;;4.93;2.25;;;13.70;99.90;;;;;;4979387;28;20172;-95
2021/10/25 12:43:41;;;;;;;4.95;2.22;;;13.50;99.90;;;;;;4979801;28;20172;-95
2021/10/25 12:46:10;;;;;;;6.82;2.78;;;13.60;99.90;;;;;;4979051;28;20183;-96
2021/10/25 12:48:40;;;;;;;6.70;2.60;;;13.60;99.90;;;;;;4979057;28;20179;-96
2021/10/25 12:51:20;;;;;;;5.45;2.38;;;13.50;99.90;;;;;;4978792;28;20575;-95
2021/10/25 12:53:48;;;;;;;11.68;2.67;;;13.40;99.90;;;;;;4979151;28;20681;-96
2021/10/25 12:56:24;;;;;;;10.05;2.67;;;13.40;99.90;;;;;;4979015;28;20250;-95
2021/10/25 12:59:02;;;;;;;4.15;2.33;;;13.40;99.90;;;;;;4978665;28;20226;-95
2021/10/25 13:01:33;;;;;;;3.80;2.15;;;13.40;99.90;;;;;;4978632;28;20179;-94
2021/10/25 13:04:01;;;;;;;4.97;2.30;;;13.30;99.90;;;;;;4979193;28;20212;-94
2021/10/25 13:06:30;;;;;;;8.32;2.95;;;13.30;99.90;;;;;;4978480;28;20238;-94
2021/10/25 13:09:02;;;;;;;5.85;2.40;;;13.20;99.90;;;;;;4978837;28;20271;-96
2021/10/25 13:11:30;;;;;;;5.72;2.50;;;13.30;99.90;;;;;;4979766;28;20393;-96
2021/10/25 13:13:58;;;;;;;5.60;2.40;;;13.50;99.90;;;;;;4981831;28;20168;-96
2021/10/25 13:16:30;;;;;;;8.13;2.50;;;13.50;99.90;;;;;;4980618;28;20245;-96
2021/10/25 13:18:56;;;;;;;6.63;2.60;;;13.40;99.90;;;;;;4978852;28;20172;-96
2021/10/25 13:21:23;;;;;;;7.80;2.70;;;13.30;99.90;;;;;;4978683;28;20581;-94
2021/10/25 13:23:49;;;;;;;7.28;2.58;;;13.20;99.90;;;;;;4978217;28;20295;-95
2021/10/25 13:26:14;;;;;;;5.38;2.35;;;13.10;99.90;;;;;;4997349;28;20307;-93
2021/10/25 13:28:40;;;;;;;5.22;2.38;;;13.00;99.90;;;;;;5015344;28;20175;-95
2021/10/25 13:31:07;;;;;;;7.85;2.40;;;13.10;99.90;;;;;;4998131;28;20175;-95
2021/10/25 13:33:35;;;;;;;4.35;2.10;;;13.10;99.90;;;;;;5014054;28;20179;-96
2021/10/25 13:36:02;;;;;;;4.72;1.95;;;13.00;99.90;;;;;;4997850;28;20198;-95
2021/10/25 13:38:27;;;;;;;3.55;2.17;;;13.10;99.90;;;;;;4997474;28;20179;-96
2021/10/25 13:40:53;;;;;;;4.60;2.15;;;13.10;99.90;;;;;;5014002;28;20182;-95
2021/10/25 13:43:19;;;;;;;5.22;2.00;;;13.20;99.90;;;;;;4997840;28;20186;-96
2021/10/25 13:45:47;;;;;;;6.45;2.03;;;13.20;99.90;;;;;;4997921;28;20254;-95
2021/10/25 13:48:14;;;;;;;5.28;2.08;;;13.20;99.90;;;;;;4997828;28;20179;-96
2021/10/25 13:50:40;;;;;;;6.00;2.25;;;13.20;99.90;;;;;;5014107;28;20241;-96
2021/10/25 13:53:09;;;;;;;8.10;2.47;;;13.30;99.90;;;;;;5014773;28;20175;-95
2021/10/25 13:55:36;;;;;;;3.28;1.98;;;13.40;99.90;;;;;;4998012;28;20214;-96
2021/10/25 13:58:02;;;;;;;6.20;2.03;;;13.40;99.90;;;;;;4997957;28;20226;-96
2021/10/25 14:00:28;;;;;;;5.20;2.10;;;13.40;99.90;;;;;;4997422;28;20626;-94
2021/10/25 14:03:08;;;;;;;5.45;2.30;;;13.30;99.90;;;;;;4997042;28;20187;-93
2021/10/25 14:05:34;;;;;;;4.63;1.70;;;13.20;99.90;;;;;;4998237;28;20206;-95
2021/10/25 14:07:59;;;;;;;9.50;2.53;;;13.30;99.90;;;;;;4997885;28;20258;-94
2021/10/25 14:10:37;;;;;;;8.13;2.17;;;13.20;99.90;;;;;;4997798;28;20180;-94
2021/10/25 14:13:19;;;;;;;4.00;2.03;;;13.10;99.90;;;;;;4997370;28;20199;-94
2021/10/25 14:15:45;;;;;;;6.07;2.30;;;12.90;99.90;;;;;;4997444;28;20518;-95
2021/10/25 14:18:13;;;;;;;4.00;2.20;;;12.80;99.90;;;;;;4997684;28;20175;-94
2021/10/25 14:20:40;;;;;;;4.45;2.33;;;12.70;99.90;;;;;;4997626;28;20191;-96
2021/10/25 14:23:20;;;;;;;8.43;2.20;;;12.70;99.90;;;;;;4998131;28;20549;-96
2021/10/25 14:25:46;;;;;;;6.38;2.05;;;12.70;99.90;;;;;;4963348;28;20666;-96
2021/10/25 14:28:11;;;;;;;5.47;2.28;;;12.80;99.90;;;;;;4978845;28;20176;-96
2021/10/25 14:30:37;;;;;;;4.97;2.20;;;12.90;99.90;;;;;;4978173;28;20176;-96
2021/10/25 14:33:06;;;;;;;3.05;2.03;;;12.90;99.90;;;;;;4979357;28;20180;-96
2021/10/25 14:35:32;;;;;;;5.05;2.00;;;13.00;99.90;;;;;;4996818;28;20203;-96
2021/10/25 14:38:10;;;;;;;7.03;2.10;;;13.00;99.90;;;;;;4999455;28;20603;-96
2021/10/25 14:43:31;;;;;;;4.20;2.33;;;12.90;99.90;;;;;;4999804;28;20682;-96
2021/10/25 14:46:03;;;;;;;3.40;1.85;;;12.80;99.90;;;;;;4982496;28;20223;-96
2021/10/25 14:53:54;;;;;;;6.28;2.25;;;12.80;99.90;;;;;;4998772;28;20175;-94
2021/10/25 14:56:21;;;;;;;9.13;4.68;;;12.70;99.90;;;;;;4992076;28;20195;-94
2021/10/25 14:58:47;;;;;;;6.47;2.42;;;12.60;99.90;;;;;;4980573;28;20187;-94